Time;durP1;ratioP1;P1;durP2;ratioP2;P2;SDS_P1;SDS_P2;PMS_P1;PMS_P2;Temp;Humidity;BMP_temperature;BMP_pressure;BME280_temperature;BME280_humidity;BME280_pressure;Samples;Min_cycle;Max_cycle;Signal;HPM_P1;HPM_P2
2021/04/26 00:02:20;;;;;;;0.00;0.00;;;14.10;59.20;;;;;;4160441;28;20054;-44
2021/04/26 00:04:41;;;;;;;0.00;0.00;;;14.10;59.20;;;;;;4160858;28;20491;-44
2021/04/26 00:07:02;;;;;;;0.00;0.00;;;14.10;59.20;;;;;;4160161;28;20061;-44
2021/04/26 00:09:23;;;;;;;0.00;0.00;;;14.10;59.20;;;;;;4159017;28;20451;-44
2021/04/26 00:11:44;;;;;;;0.63;0.63;;;14.10;59.90;;;;;;4144117;28;20052;-45
2021/04/26 00:14:06;;;;;;;0.00;0.00;;;14.10;59.20;;;;;;4144520;28;20060;-44
2021/04/26 00:16:26;;;;;;;0.00;0.00;;;14.10;59.20;;;;;;4144106;28;20143;-48
2021/04/26 00:18:47;;;;;;;0.00;0.00;;;14.10;59.20;;;;;;4144357;28;20069;-44
2021/04/26 00:21:09;;;;;;;0.00;0.00;;;14.00;59.20;;;;;;4144381;28;20049;-46
2021/04/26 00:23:30;;;;;;;0.10;0.10;;;14.10;59.20;;;;;;4144106;28;20057;-44
2021/04/26 00:25:51;;;;;;;0.00;0.00;;;14.00;59.20;;;;;;4143989;28;20053;-44
2021/04/26 00:28:12;;;;;;;0.00;0.00;;;14.00;59.20;;;;;;4143795;28;20399;-44
2021/04/26 00:30:35;;;;;;;0.00;0.00;;;14.00;59.30;;;;;;4144471;28;20488;-50
2021/04/26 00:32:56;;;;;;;0.00;0.00;;;14.00;59.30;;;;;;4144313;28;20452;-45
2021/04/26 00:35:18;;;;;;;0.00;0.00;;;14.00;59.30;;;;;;4144368;28;20042;-45
2021/04/26 00:37:39;;;;;;;0.00;0.00;;;14.00;59.30;;;;;;4143718;28;20045;-44
2021/04/26 00:40:00;;;;;;;0.00;0.00;;;14.00;59.30;;;;;;4143927;28;20153;-49
2021/04/26 00:42:21;;;;;;;0.00;0.00;;;14.00;59.30;;;;;;4143899;28;20056;-48
2021/04/26 00:44:42;;;;;;;;;;;14.00;59.30;;;;;;4144141;28;20140;-46
2021/04/26 00:47:04;;;;;;;0.00;0.00;;;14.00;59.40;;;;;;4143643;28;19929;-45
2021/04/26 00:49:26;;;;;;;0.00;0.00;;;13.90;59.30;;;;;;4144012;28;20066;-44
2021/04/26 00:51:47;;;;;;;0.00;0.00;;;13.90;59.30;;;;;;4142449;28;20516;-44
2021/04/26 00:54:08;;;;;;;0.00;0.00;;;13.90;59.40;;;;;;4142127;28;20053;-45
2021/04/26 00:56:29;;;;;;;0.00;0.00;;;14.00;59.50;;;;;;4142305;28;20523;-45
2021/04/26 00:58:49;;;;;;;0.00;0.00;;;13.90;59.50;;;;;;4143897;28;20053;-48
2021/04/26 01:01:11;;;;;;;;;;;13.90;59.50;;;;;;4144302;28;20103;-50
2021/04/26 01:03:33;;;;;;;0.00;0.00;;;13.90;59.60;;;;;;4142488;28;19921;-47
2021/04/26 01:05:54;;;;;;;0.00;0.00;;;13.90;59.60;;;;;;4143372;28;20049;-46
2021/04/26 01:08:15;;;;;;;0.00;0.00;;;13.90;59.60;;;;;;4143485;28;20150;-47
2021/04/26 01:11:06;;;;;;;0.00;0.00;;;13.90;59.60;;;;;;4151012;28;20054;-46
2021/04/26 01:13:57;;;;;;;0.00;0.00;;;13.80;59.70;;;;;;4159437;28;20132;-50
2021/04/26 01:16:22;;;;;;;;;;;13.80;59.80;;;;;;4159440;28;20477;-44
2021/04/26 01:18:50;;;;;;;0.00;0.00;;;13.80;59.80;;;;;;4159608;28;20390;-44
2021/04/26 01:21:57;;;;;;;0.00;0.00;;;13.80;59.80;;;;;;4159317;28;20061;-47
2021/04/26 01:24:50;;;;;;;0.00;0.00;;;13.70;59.70;;;;;;4158944;28;20049;-47
2021/04/26 01:27:23;;;;;;;0.00;0.00;;;13.80;59.80;;;;;;4141808;28;20054;-46
2021/04/26 01:29:58;;;;;;;0.00;0.00;;;13.80;59.90;;;;;;4142600;28;20066;-44
2021/04/26 01:32:27;;;;;;;0.00;0.00;;;13.80;60.00;;;;;;4140758;28;20134;-47
2021/04/26 01:34:51;;;;;;;0.00;0.00;;;13.80;60.00;;;;;;4158156;28;20115;-45
2021/04/26 01:37:21;;;;;;;0.00;0.00;;;13.70;60.00;;;;;;4143801;28;20592;-45
2021/04/26 01:39:43;;;;;;;0.10;0.10;;;13.70;60.10;;;;;;4159266;28;20049;-44
2021/04/26 01:42:05;;;;;;;0.00;0.00;;;13.70;60.10;;;;;;4143888;28;20148;-47
2021/04/26 01:44:27;;;;;;;0.00;0.00;;;13.70;60.20;;;;;;4144216;28;20049;-45
2021/04/26 01:46:50;;;;;;;0.00;0.00;;;13.70;60.20;;;;;;4144346;28;20144;-47
2021/04/26 01:49:13;;;;;;;0.00;0.00;;;13.70;60.30;;;;;;4159324;28;20049;-43
2021/04/26 01:51:34;;;;;;;0.00;0.00;;;13.70;60.30;;;;;;4127779;28;20141;-45
2021/04/26 01:53:56;;;;;;;0.00;0.00;;;13.70;60.40;;;;;;4152748;28;20053;-46
2021/04/26 01:56:18;;;;;;;0.25;0.25;;;13.70;60.40;;;;;;4157847;28;20136;-43
2021/04/26 01:58:46;;;;;;;0.00;0.00;;;13.60;60.80;;;;;;4158939;28;20518;-43
2021/04/26 02:01:09;;;;;;;0.95;0.95;;;13.60;60.40;;;;;;4159101;28;20514;-44
2021/04/26 02:03:31;;;;;;;0.00;0.00;;;13.60;60.40;;;;;;4143923;28;20401;-44
2021/04/26 02:06:00;;;;;;;0.00;0.00;;;13.60;60.40;;;;;;4143632;28;20707;-47
2021/04/26 02:08:25;;;;;;;0.00;0.00;;;13.60;61.30;;;;;;4141043;28;20054;-47
2021/04/26 02:10:47;;;;;;;0.10;0.10;;;13.60;60.50;;;;;;4127254;28;20050;-47
2021/04/26 02:13:09;;;;;;;0.25;0.25;;;13.60;60.60;;;;;;4143468;28;20038;-45
2021/04/26 02:15:30;;;;;;;0.00;0.00;;;13.50;60.50;;;;;;4158615;28;20057;-45
2021/04/26 02:17:52;;;;;;;0.00;0.00;;;13.50;60.50;;;;;;4158552;28;20805;-45
2021/04/26 02:20:15;;;;;;;0.38;0.38;;;13.50;60.60;;;;;;4158489;28;20207;-45
2021/04/26 02:22:37;;;;;;;0.00;0.00;;;13.50;60.60;;;;;;4158202;28;20061;-48
2021/04/26 02:24:59;;;;;;;0.05;0.05;;;13.50;60.60;;;;;;4157636;28;20132;-45
2021/04/26 02:27:24;;;;;;;0.10;0.10;;;13.50;60.70;;;;;;4156951;28;20049;-44
2021/04/26 02:29:45;;;;;;;0.00;0.00;;;13.50;60.80;;;;;;4157223;28;20524;-45
2021/04/26 02:32:15;;;;;;;0.28;0.28;;;13.50;60.80;;;;;;4158783;28;20060;-45
2021/04/26 02:34:47;;;;;;;0.00;0.00;;;13.50;60.90;;;;;;4145278;28;20132;-44
2021/04/26 02:37:14;;;;;;;0.00;0.00;;;13.50;60.90;;;;;;4140920;28;20046;-45
2021/04/26 02:39:38;;;;;;;0.00;0.00;;;13.40;60.80;;;;;;4140122;28;20819;-44
2021/04/26 02:42:03;;;;;;;1.27;0.85;;;13.50;60.90;;;;;;4143087;28;20061;-45
2021/04/26 02:44:31;;;;;;;;;;;13.50;61.00;;;;;;4142620;28;20054;-44
2021/04/26 02:47:02;;;;;;;0.00;0.00;;;13.40;61.00;;;;;;4142908;28;20399;-44
2021/04/26 02:49:26;;;;;;;0.10;0.10;;;13.40;61.00;;;;;;4142610;28;20060;-44
2021/04/26 02:51:49;;;;;;;0.00;0.00;;;13.40;61.00;;;;;;4143103;28;20069;-44
2021/04/26 02:54:11;;;;;;;0.00;0.00;;;13.40;61.10;;;;;;4126462;28;20055;-43
2021/04/26 02:56:37;;;;;;;0.00;0.00;;;13.40;61.10;;;;;;4133965;28;20079;-44
2021/04/26 02:58:59;;;;;;;0.00;0.00;;;13.40;61.20;;;;;;4143194;28;20060;-44
2021/04/26 03:01:31;;;;;;;0.57;0.57;;;13.40;61.20;;;;;;4142352;28;20128;-45
2021/04/26 03:04:17;;;;;;;0.00;0.00;;;13.30;61.20;;;;;;4121144;28;20810;-46
2021/04/26 03:06:39;;;;;;;0.00;0.00;;;13.30;61.10;;;;;;4153229;28;20493;-43
2021/04/26 03:09:28;;;;;;;0.00;0.00;;;13.30;61.20;;;;;;4157529;28;20060;-44
2021/04/26 03:11:53;;;;;;;0.00;0.00;;;13.30;61.20;;;;;;4157881;28;20073;-45
2021/04/26 03:14:18;;;;;;;0.00;0.00;;;13.30;61.20;;;;;;4142760;28;20092;-44
2021/04/26 03:16:40;;;;;;;0.00;0.00;;;13.30;61.20;;;;;;4157480;28;20049;-44
2021/04/26 03:19:02;;;;;;;;;;;13.30;61.30;;;;;;4143152;28;20049;-44
2021/04/26 03:21:25;;;;;;;0.00;0.00;;;13.30;61.50;;;;;;4142913;28;20015;-44
2021/04/26 03:23:48;;;;;;;0.00;0.00;;;13.30;61.40;;;;;;4141878;28;20046;-44
2021/04/26 03:26:11;;;;;;;0.00;0.00;;;13.30;61.40;;;;;;4157422;28;20054;-43
2021/04/26 03:28:34;;;;;;;0.00;0.00;;;13.30;61.40;;;;;;4142773;28;20512;-42
2021/04/26 03:30:58;;;;;;;0.05;0.05;;;13.30;61.40;;;;;;4146978;28;20088;-42
2021/04/26 03:33:43;;;;;;;0.00;0.00;;;13.20;61.40;;;;;;4141373;28;20548;-42
2021/04/26 03:36:06;;;;;;;0.00;0.00;;;13.20;61.50;;;;;;4150734;28;20053;-43
2021/04/26 03:38:28;;;;;;;0.00;0.00;;;13.20;61.50;;;;;;4161010;28;20057;-50
2021/04/26 03:40:50;;;;;;;0.00;0.00;;;13.20;61.50;;;;;;4145758;28;20045;-45
2021/04/26 03:43:14;;;;;;;0.00;0.00;;;13.20;61.50;;;;;;4145896;28;20069;-46
2021/04/26 03:45:52;;;;;;;0.00;0.00;;;13.20;61.60;;;;;;4155197;28;20129;-48
2021/04/26 03:48:31;;;;;;;0.25;0.25;;;13.20;61.60;;;;;;4160707;28;20053;-45
2021/04/26 03:51:09;;;;;;;0.00;0.00;;;13.10;61.60;;;;;;4145581;28;20509;-45
2021/04/26 03:53:49;;;;;;;0.00;0.00;;;13.20;61.80;;;;;;4144385;28;20052;-48
2021/04/26 03:56:13;;;;;;;0.00;0.00;;;13.20;61.70;;;;;;4145565;28;20436;-46
2021/04/26 03:58:34;;;;;;;0.32;0.32;;;13.10;61.60;;;;;;4160652;28;20103;-46
2021/04/26 04:00:56;;;;;;;0.00;0.00;;;13.10;61.60;;;;;;4145718;28;20065;-46
2021/04/26 04:03:17;;;;;;;0.00;0.00;;;13.10;61.70;;;;;;4160452;28;20100;-43
2021/04/26 04:05:41;;;;;;;0.00;0.00;;;13.10;61.80;;;;;;4129508;28;20512;-44
2021/04/26 04:08:22;;;;;;;;;;;13.10;62.20;;;;;;4144700;28;20053;-43
2021/04/26 04:11:01;;;;;;;0.00;0.00;;;13.10;61.90;;;;;;4148825;28;19924;-45
2021/04/26 04:13:41;;;;;;;0.00;0.00;;;13.00;61.90;;;;;;4160222;28;20052;-44
2021/04/26 04:16:04;;;;;;;0.00;0.00;;;13.00;62.00;;;;;;4160633;28;20049;-43
2021/04/26 04:18:25;;;;;;;0.00;0.00;;;13.00;62.00;;;;;;4145372;28;20113;-44
2021/04/26 04:20:47;;;;;;;;;;;13.00;62.10;;;;;;4145403;28;20041;-45
2021/04/26 04:23:08;;;;;;;;;;;13.00;62.10;;;;;;4145815;28;19932;-47
2021/04/26 04:25:31;;;;;;;0.00;0.00;;;13.00;62.20;;;;;;4145254;28;19925;-46
2021/04/26 04:27:54;;;;;;;1.05;0.50;;;13.00;62.30;;;;;;4158969;28;20392;-44
2021/04/26 04:30:16;;;;;;;0.00;0.00;;;13.00;62.60;;;;;;4161003;28;20059;-46
2021/04/26 04:32:57;;;;;;;0.00;0.00;;;12.90;62.20;;;;;;4158984;28;20120;-44
2021/04/26 04:35:24;;;;;;;0.00;0.00;;;12.90;62.30;;;;;;4160491;28;20045;-45
2021/04/26 04:38:04;;;;;;;0.10;0.10;;;12.90;62.30;;;;;;4159799;28;20056;-44
2021/04/26 04:40:44;;;;;;;0.55;0.55;;;12.90;62.40;;;;;;4159452;28;20060;-44
2021/04/26 04:43:15;;;;;;;0.00;0.00;;;12.90;62.40;;;;;;4143890;28;20050;-44
2021/04/26 04:45:50;;;;;;;0.05;0.05;;;12.90;62.40;;;;;;4142329;28;20042;-44
2021/04/26 04:48:30;;;;;;;0.00;0.00;;;12.90;62.40;;;;;;4143617;28;20553;-44
2021/04/26 04:50:53;;;;;;;0.00;0.00;;;12.90;62.40;;;;;;4132455;28;20124;-44
2021/04/26 04:53:13;;;;;;;0.65;0.65;;;12.90;62.40;;;;;;4144331;28;20046;-44
2021/04/26 04:55:35;;;;;;;0.00;0.00;;;12.90;62.50;;;;;;4160000;28;20056;-44
2021/04/26 04:57:56;;;;;;;0.00;0.00;;;12.90;62.90;;;;;;4158688;28;20164;-44
2021/04/26 05:00:18;;;;;;;0.00;0.00;;;12.90;62.50;;;;;;4158974;28;20341;-44
2021/04/26 05:03:02;;;;;;;0.10;0.10;;;12.90;62.50;;;;;;4159627;28;20049;-44
2021/04/26 05:06:03;;;;;;;0.03;0.03;;;12.90;62.40;;;;;;4092620;28;20494;-45
2021/04/26 05:09:00;;;;;;;0.00;0.00;;;12.90;62.40;;;;;;4092528;28;20494;-44
2021/04/26 05:12:00;;;;;;;0.00;0.00;;;12.90;62.30;;;;;;4077808;29;20390;-44
2021/04/26 05:14:40;;;;;;;0.00;0.00;;;13.00;62.20;;;;;;4077074;29;20055;-45
2021/04/26 05:17:02;;;;;;;0.00;0.00;;;13.00;62.00;;;;;;4106217;28;20046;-44
2021/04/26 05:19:23;;;;;;;0.00;0.00;;;13.10;61.90;;;;;;4143174;28;20042;-45
2021/04/26 05:21:44;;;;;;;0.00;0.00;;;13.10;61.60;;;;;;4154243;28;20041;-44
2021/04/26 05:24:07;;;;;;;0.00;0.00;;;13.20;61.40;;;;;;4144510;28;20073;-44
2021/04/26 05:26:29;;;;;;;0.00;0.00;;;13.20;61.40;;;;;;4159016;28;20488;-44
2021/04/26 05:28:50;;;;;;;;;;;13.30;61.50;;;;;;4159449;28;20049;-44
2021/04/26 05:31:11;;;;;;;0.00;0.00;;;13.30;62.50;;;;;;4158537;28;19932;-45
2021/04/26 05:33:32;;;;;;;1.42;0.50;;;13.30;62.10;;;;;;4159250;28;20108;-45
2021/04/26 05:35:53;;;;;;;0.55;0.55;;;13.40;62.00;;;;;;4158732;28;20049;-46
2021/04/26 05:38:18;;;;;;;0.00;0.00;;;13.40;61.90;;;;;;4128206;28;20102;-45
2021/04/26 05:40:41;;;;;;;0.00;0.00;;;13.40;61.80;;;;;;4143126;28;20058;-51
2021/04/26 05:43:02;;;;;;;0.00;0.00;;;13.50;61.60;;;;;;4143983;28;20053;-48
2021/04/26 05:45:24;;;;;;;0.00;0.00;;;13.40;61.40;;;;;;4143975;28;20152;-45
2021/04/26 05:48:05;;;;;;;0.00;0.00;;;13.50;61.40;;;;;;4143400;28;20069;-46
2021/04/26 05:50:27;;;;;;;0.00;0.00;;;13.50;61.40;;;;;;4158942;28;20480;-46
2021/04/26 05:52:48;;;;;;;0.00;0.00;;;13.50;61.50;;;;;;4159288;28;20045;-44
2021/04/26 05:55:11;;;;;;;0.00;0.00;;;13.50;61.50;;;;;;4158684;28;20124;-46
2021/04/26 05:57:32;;;;;;;0.00;0.00;;;13.50;61.50;;;;;;4143967;28;20046;-45
2021/04/26 05:59:54;;;;;;;0.00;0.00;;;13.50;61.40;;;;;;4159042;28;20060;-48
2021/04/26 06:02:14;;;;;;;;;;;13.50;61.40;;;;;;4159378;28;20159;-46
2021/04/26 06:04:35;;;;;;;0.00;0.00;;;13.50;61.40;;;;;;4158632;28;20380;-49
2021/04/26 06:06:56;;;;;;;0.00;0.00;;;13.50;61.30;;;;;;4158903;28;20057;-46
2021/04/26 06:09:18;;;;;;;0.30;0.30;;;13.50;61.20;;;;;;4158741;28;20053;-45
2021/04/26 06:11:39;;;;;;;0.00;0.00;;;13.50;61.10;;;;;;4157961;28;20046;-45
2021/04/26 06:14:00;;;;;;;0.00;0.00;;;13.50;61.10;;;;;;4158547;28;20052;-44
2021/04/26 06:16:21;;;;;;;0.15;0.15;;;13.50;61.20;;;;;;4158501;28;20503;-45
2021/04/26 06:18:42;;;;;;;0.00;0.00;;;13.50;61.20;;;;;;4158788;28;20049;-46
2021/04/26 06:21:03;;;;;;;0.25;0.22;;;13.50;61.20;;;;;;4158516;28;20041;-45
2021/04/26 06:23:24;;;;;;;0.00;0.00;;;13.50;61.20;;;;;;4158620;28;20091;-46
2021/04/26 06:25:46;;;;;;;0.00;0.00;;;13.50;61.30;;;;;;4158418;28;20091;-44
2021/04/26 06:28:08;;;;;;;0.00;0.00;;;13.50;61.30;;;;;;4158378;28;20060;-45
2021/04/26 06:30:29;;;;;;;0.00;0.00;;;13.50;61.30;;;;;;4158059;28;20136;-45
2021/04/26 06:32:50;;;;;;;0.00;0.00;;;13.50;61.30;;;;;;4158171;28;20099;-45
2021/04/26 06:35:12;;;;;;;4.18;2.53;;;13.50;61.30;;;;;;4157988;28;20049;-44
2021/04/26 06:37:34;;;;;;;0.25;0.25;;;13.50;61.60;;;;;;4158131;28;20431;-44
2021/04/26 06:39:56;;;;;;;0.70;0.70;;;13.50;61.60;;;;;;4157929;28;20060;-45
2021/04/26 06:42:16;;;;;;;0.10;0.10;;;13.50;61.40;;;;;;4157221;28;20789;-44
2021/04/26 06:44:38;;;;;;;0.22;0.22;;;13.60;61.30;;;;;;4156715;28;20053;-44
2021/04/26 06:47:00;;;;;;;1.48;1.38;;;13.60;61.20;;;;;;4156801;28;20045;-47
2021/04/26 06:49:22;;;;;;;0.00;0.00;;;13.60;61.00;;;;;;4157388;28;20053;-44
2021/04/26 06:51:43;;;;;;;0.00;0.00;;;13.60;60.60;;;;;;4155621;28;20057;-46
2021/04/26 06:54:04;;;;;;;0.00;0.00;;;13.70;60.50;;;;;;4158089;28;20041;-44
2021/04/26 06:56:25;;;;;;;1.10;1.10;;;13.70;60.30;;;;;;4156828;28;20140;-45
2021/04/26 06:58:47;;;;;;;26.05;2.00;;;13.70;60.00;;;;;;4155512;28;20045;-44
2021/04/26 07:01:08;;;;;;;;;;;13.80;59.80;;;;;;4157744;28;20076;-44
2021/04/26 07:03:34;;;;;;;0.70;0.45;;;13.80;59.80;;;;;;4157507;28;20629;-45
2021/04/26 07:05:55;;;;;;;0.00;0.00;;;13.80;59.80;;;;;;4152008;28;20053;-45
2021/04/26 07:08:16;;;;;;;0.00;0.00;;;13.90;59.80;;;;;;4157303;28;20472;-44
2021/04/26 07:10:37;;;;;;;0.00;0.00;;;13.90;59.80;;;;;;4156622;28;20053;-44
2021/04/26 07:12:58;;;;;;;0.00;0.00;;;14.00;59.60;;;;;;4157332;28;20075;-45
2021/04/26 07:15:19;;;;;;;4.18;0.57;;;13.90;59.50;;;;;;4157219;28;20053;-45
2021/04/26 07:17:42;;;;;;;0.38;0.38;;;14.00;59.40;;;;;;4157538;28;20559;-45
2021/04/26 07:20:05;;;;;;;0.00;0.00;;;14.00;59.40;;;;;;4157347;28;20472;-48
2021/04/26 07:22:27;;;;;;;0.00;0.00;;;14.00;59.30;;;;;;4157684;28;20056;-47
2021/04/26 07:24:49;;;;;;;0.00;0.00;;;14.00;59.30;;;;;;4157566;28;20050;-46
2021/04/26 07:27:11;;;;;;;0.00;0.00;;;14.00;59.10;;;;;;4156988;28;20053;-43
2021/04/26 07:29:32;;;;;;;0.00;0.00;;;14.10;59.00;;;;;;4157152;28;20060;-42
2021/04/26 07:31:53;;;;;;;0.00;0.00;;;14.10;59.10;;;;;;4156740;28;20104;-42
2021/04/26 07:34:15;;;;;;;0.00;0.00;;;14.10;59.10;;;;;;4157632;28;20431;-42
2021/04/26 07:36:36;;;;;;;0.00;0.00;;;14.10;59.10;;;;;;4157430;28;20049;-43
2021/04/26 07:38:57;;;;;;;;;;;14.10;58.80;;;;;;4142119;28;20050;-44
2021/04/26 07:41:18;;;;;;;0.00;0.00;;;14.20;58.60;;;;;;4152629;28;19971;-42
2021/04/26 07:43:39;;;;;;;0.00;0.00;;;14.20;58.70;;;;;;4157377;28;20132;-42
2021/04/26 07:46:00;;;;;;;0.00;0.00;;;14.20;58.60;;;;;;4157461;28;20056;-42
2021/04/26 07:48:21;;;;;;;0.00;0.00;;;14.20;58.70;;;;;;4157022;28;20443;-42
2021/04/26 07:50:44;;;;;;;0.00;0.00;;;14.20;58.80;;;;;;4157266;28;20053;-41
2021/04/26 07:53:05;;;;;;;0.45;0.45;;;14.20;58.80;;;;;;4157552;28;20042;-41
2021/04/26 07:55:26;;;;;;;0.17;0.17;;;14.20;58.40;;;;;;4157023;28;20064;-41
2021/04/26 07:57:50;;;;;;;29.92;0.90;;;14.20;58.50;;;;;;4141253;28;20057;-42
2021/04/26 08:00:13;;;;;;;0.00;0.00;;;14.20;57.90;;;;;;4144454;28;20405;-42
2021/04/26 08:02:33;;;;;;;0.00;0.00;;;14.20;57.80;;;;;;4156902;28;20397;-43
2021/04/26 08:04:54;;;;;;;0.00;0.00;;;14.20;58.20;;;;;;4142679;28;20166;-45
2021/04/26 08:07:16;;;;;;;0.00;0.00;;;14.30;57.60;;;;;;4156435;28;20495;-43
2021/04/26 08:09:38;;;;;;;0.00;0.00;;;14.20;57.50;;;;;;4157387;28;20103;-41
2021/04/26 08:11:59;;;;;;;0.00;0.00;;;14.20;57.30;;;;;;4157000;28;20057;-41
2021/04/26 08:14:20;;;;;;;0.05;0.05;;;14.20;57.40;;;;;;4157389;28;20053;-43
2021/04/26 08:16:41;;;;;;;0.10;0.10;;;14.20;57.60;;;;;;4157250;28;20108;-42
2021/04/26 08:19:02;;;;;;;0.00;0.00;;;14.20;57.60;;;;;;4156840;28;20456;-43
2021/04/26 08:21:24;;;;;;;0.00;0.00;;;14.20;57.40;;;;;;4159449;28;20057;-44
2021/04/26 08:23:45;;;;;;;0.00;0.00;;;14.20;57.40;;;;;;4160400;28;20767;-47
2021/04/26 08:26:06;;;;;;;0.00;0.00;;;14.30;57.50;;;;;;4159835;28;20647;-48
2021/04/26 08:28:29;;;;;;;0.00;0.00;;;14.30;57.30;;;;;;4160147;28;20492;-46
2021/04/26 08:30:50;;;;;;;0.00;0.00;;;14.30;56.80;;;;;;4160206;28;20049;-45
2021/04/26 08:33:11;;;;;;;0.00;0.00;;;14.40;56.80;;;;;;4159869;28;20049;-45
2021/04/26 08:35:32;;;;;;;0.00;0.00;;;14.40;56.80;;;;;;4160005;28;20496;-46
2021/04/26 08:37:55;;;;;;;0.00;0.00;;;14.40;56.80;;;;;;4160105;28;20049;-44
2021/04/26 08:40:17;;;;;;;0.00;0.00;;;14.40;56.80;;;;;;4159731;28;20507;-46
2021/04/26 08:42:38;;;;;;;0.00;0.00;;;14.40;56.60;;;;;;4145625;28;20058;-45
2021/04/26 08:44:59;;;;;;;;;;;14.50;56.40;;;;;;4160346;28;20487;-45
2021/04/26 08:47:23;;;;;;;0.00;0.00;;;14.40;55.90;;;;;;4159374;28;20275;-45
2021/04/26 08:49:44;;;;;;;0.13;0.13;;;14.40;55.90;;;;;;4159153;28;20068;-45
2021/04/26 08:52:07;;;;;;;0.00;0.00;;;14.40;56.00;;;;;;4157848;28;20057;-43
2021/04/26 08:54:28;;;;;;;0.00;0.00;;;14.40;56.00;;;;;;4159717;28;20049;-46
2021/04/26 08:56:50;;;;;;;;;;;14.40;56.00;;;;;;4149320;28;20132;-45
2021/04/26 08:59:11;;;;;;;0.00;0.00;;;14.50;56.00;;;;;;4159194;28;19981;-49
2021/04/26 09:01:33;;;;;;;0.00;0.00;;;14.50;55.70;;;;;;4159609;28;20037;-49
2021/04/26 09:04:03;;;;;;;;;;;14.50;56.10;;;;;;4160430;28;20072;-49
2021/04/26 09:06:24;;;;;;;0.00;0.00;;;14.50;54.70;;;;;;4159054;28;19925;-44
2021/04/26 09:08:50;;;;;;;0.00;0.00;;;14.50;54.80;;;;;;4159727;28;20483;-44
2021/04/26 09:11:12;;;;;;;0.22;0.22;;;14.60;54.70;;;;;;4148266;28;20132;-44
2021/04/26 09:13:38;;;;;;;0.00;0.00;;;14.50;54.30;;;;;;4159289;28;20037;-45
2021/04/26 09:16:01;;;;;;;0.00;0.00;;;14.60;54.20;;;;;;4160142;28;20049;-44
2021/04/26 09:18:47;;;;;;;0.00;0.00;;;14.60;53.50;;;;;;4143496;28;20163;-47
2021/04/26 09:21:13;;;;;;;1.50;1.30;;;14.60;53.50;;;;;;4159268;28;20131;-45
2021/04/26 09:23:35;;;;;;;0.00;0.00;;;14.70;54.30;;;;;;4143625;28;20108;-46
2021/04/26 09:25:56;;;;;;;0.00;0.00;;;14.70;53.60;;;;;;4130533;28;20509;-44
2021/04/26 09:28:19;;;;;;;0.00;0.00;;;14.80;53.40;;;;;;4158990;28;20399;-47
2021/04/26 09:30:47;;;;;;;0.00;0.00;;;14.80;53.50;;;;;;4148080;28;20053;-45
2021/04/26 09:33:29;;;;;;;0.00;0.00;;;14.80;53.30;;;;;;4157992;28;20089;-45
2021/04/26 09:36:15;;;;;;;0.00;0.00;;;14.90;53.10;;;;;;4157703;28;20425;-44
2021/04/26 09:38:39;;;;;;;1.23;1.13;;;14.80;52.70;;;;;;4158519;28;20057;-45
2021/04/26 09:41:21;;;;;;;0.00;0.00;;;14.90;52.60;;;;;;4142591;28;20038;-44
2021/04/26 09:43:44;;;;;;;0.00;0.00;;;14.80;53.10;;;;;;4144360;28;20432;-46
2021/04/26 09:46:06;;;;;;;0.00;0.00;;;14.80;52.70;;;;;;4159665;28;20424;-44
2021/04/26 09:48:28;;;;;;;0.00;0.00;;;14.90;52.60;;;;;;4159277;28;20069;-45
2021/04/26 09:50:52;;;;;;;0.10;0.10;;;14.90;52.40;;;;;;4157987;28;20107;-45
2021/04/26 09:53:13;;;;;;;0.00;0.00;;;15.00;52.20;;;;;;4159278;28;20052;-46
2021/04/26 09:55:35;;;;;;;0.03;0.03;;;15.00;52.10;;;;;;4158831;28;20474;-45
2021/04/26 09:57:56;;;;;;;0.00;0.00;;;15.00;51.90;;;;;;4159122;28;20132;-44
2021/04/26 10:00:19;;;;;;;0.45;0.45;;;15.00;52.50;;;;;;4155451;28;20470;-44
2021/04/26 10:02:41;;;;;;;0.00;0.00;;;15.00;51.60;;;;;;4142910;28;20046;-45
2021/04/26 10:05:07;;;;;;;0.10;0.10;;;15.10;51.90;;;;;;4126888;28;20042;-48
2021/04/26 10:07:29;;;;;;;0.00;0.00;;;15.10;52.60;;;;;;4132323;28;20046;-46
2021/04/26 10:09:51;;;;;;;0.00;0.00;;;15.20;52.30;;;;;;4142187;28;20118;-44
2021/04/26 10:12:14;;;;;;;0.00;0.00;;;15.30;51.70;;;;;;4136279;28;20065;-47
2021/04/26 10:14:40;;;;;;;0.00;0.00;;;15.30;51.40;;;;;;4125934;28;20417;-44
2021/04/26 10:17:22;;;;;;;0.20;0.20;;;15.20;51.40;;;;;;4140410;28;20046;-45
2021/04/26 10:19:47;;;;;;;0.25;0.25;;;15.20;51.20;;;;;;4126629;28;20453;-44
2021/04/26 10:22:08;;;;;;;0.88;0.88;;;15.10;51.30;;;;;;4147820;28;20184;-45
2021/04/26 10:24:32;;;;;;;0.30;0.30;;;15.10;51.30;;;;;;4158465;28;20412;-45
2021/04/26 10:26:55;;;;;;;0.00;0.00;;;15.10;51.40;;;;;;4158747;28;20053;-47
2021/04/26 10:29:20;;;;;;;0.70;0.70;;;15.10;51.40;;;;;;4157371;28;20053;-44
2021/04/26 10:32:20;;;;;;;0.00;0.00;;;15.10;51.50;;;;;;4158567;28;20544;-47
2021/04/26 10:35:13;;;;;;;0.00;0.00;;;15.10;51.40;;;;;;4158404;28;20054;-49
2021/04/26 10:37:35;;;;;;;0.00;0.00;;;15.20;51.40;;;;;;4155174;28;20163;-46
2021/04/26 10:40:07;;;;;;;0.00;0.00;;;15.20;51.50;;;;;;4158381;28;20056;-46
2021/04/26 10:42:30;;;;;;;0.00;0.00;;;15.20;51.50;;;;;;4157805;28;20164;-51
2021/04/26 10:44:54;;;;;;;2.00;1.65;;;15.20;51.50;;;;;;4156754;28;20085;-45
2021/04/26 10:47:17;;;;;;;0.00;0.00;;;15.10;51.30;;;;;;4158528;28;20128;-45
2021/04/26 10:49:40;;;;;;;0.08;0.08;;;15.10;51.30;;;;;;4158335;28;20139;-45
2021/04/26 10:52:47;;;;;;;0.00;0.00;;;15.10;51.40;;;;;;4158200;28;20050;-45
2021/04/26 10:55:11;;;;;;;0.00;0.00;;;15.10;51.90;;;;;;4157778;28;20139;-45
2021/04/26 10:57:32;;;;;;;0.20;0.20;;;15.10;52.00;;;;;;4139250;28;20061;-45
2021/04/26 10:59:53;;;;;;;0.00;0.00;;;15.10;51.90;;;;;;4141822;28;20053;-44
2021/04/26 11:02:30;;;;;;;0.00;0.00;;;15.10;51.80;;;;;;4142299;28;20072;-46
2021/04/26 11:05:15;;;;;;;0.43;0.43;;;15.20;51.80;;;;;;4125516;28;20061;-44
2021/04/26 11:07:37;;;;;;;0.85;0.85;;;15.20;51.80;;;;;;4151553;28;20124;-44
2021/04/26 11:09:58;;;;;;;0.00;0.00;;;15.20;51.70;;;;;;4157829;28;20144;-45
2021/04/26 11:12:30;;;;;;;3.05;1.27;;;15.20;51.60;;;;;;4157332;28;20049;-44
2021/04/26 11:15:14;;;;;;;0.00;0.00;;;15.20;51.00;;;;;;4141390;28;20045;-45
2021/04/26 11:17:36;;;;;;;0.00;0.00;;;15.20;50.80;;;;;;4140412;28;20057;-49
2021/04/26 11:20:11;;;;;;;0.00;0.00;;;15.20;50.70;;;;;;4124625;28;20065;-45
2021/04/26 11:22:36;;;;;;;0.00;0.00;;;15.20;50.80;;;;;;4152288;28;20045;-45
2021/04/26 11:25:02;;;;;;;0.00;0.00;;;15.20;50.40;;;;;;4156917;28;20389;-46
2021/04/26 11:27:25;;;;;;;0.00;0.00;;;15.20;50.30;;;;;;4138410;28;20042;-45
2021/04/26 11:30:12;;;;;;;1.27;1.27;;;15.20;50.40;;;;;;4139081;28;20420;-45
2021/04/26 11:32:34;;;;;;;0.00;0.00;;;15.20;50.60;;;;;;4155016;28;20045;-45
2021/04/26 11:35:07;;;;;;;0.15;0.15;;;15.20;50.90;;;;;;4157324;28;20187;-46
2021/04/26 11:37:30;;;;;;;0.25;0.25;;;15.20;51.10;;;;;;4157104;28;20132;-45
2021/04/26 11:39:54;;;;;;;0.00;0.00;;;15.20;51.10;;;;;;4157752;28;20076;-46
2021/04/26 11:42:21;;;;;;;0.00;0.00;;;15.30;51.20;;;;;;4157710;28;20115;-45
2021/04/26 11:44:43;;;;;;;0.00;0.00;;;15.20;51.30;;;;;;4157747;28;20141;-46
2021/04/26 11:47:04;;;;;;;;;;;15.20;51.00;;;;;;4157889;28;20045;-45
2021/04/26 11:49:25;;;;;;;0.68;0.68;;;15.10;50.70;;;;;;4157472;28;19925;-45
2021/04/26 11:51:47;;;;;;;0.00;0.00;;;15.10;50.70;;;;;;4156855;28;20045;-46
2021/04/26 11:54:13;;;;;;;0.00;0.00;;;15.10;50.80;;;;;;4157535;28;20162;-45
2021/04/26 11:56:35;;;;;;;0.00;0.00;;;15.10;50.80;;;;;;4128574;28;20050;-45
2021/04/26 11:59:04;;;;;;;0.00;0.00;;;15.10;50.60;;;;;;4144392;28;20436;-46
2021/04/26 12:01:25;;;;;;;0.00;0.00;;;15.10;50.40;;;;;;4144648;28;20052;-46
2021/04/26 12:03:53;;;;;;;0.00;0.00;;;15.10;50.60;;;;;;4142864;28;20069;-46
2021/04/26 12:06:16;;;;;;;0.50;0.15;;;15.10;50.70;;;;;;4143842;28;20730;-48
2021/04/26 12:08:43;;;;;;;0.10;0.10;;;15.10;50.70;;;;;;4144072;28;20076;-46
2021/04/26 12:11:14;;;;;;;0.00;0.00;;;15.10;50.80;;;;;;4144026;28;20892;-46
2021/04/26 12:13:36;;;;;;;0.08;0.08;;;15.10;50.60;;;;;;4143623;28;20100;-48
2021/04/26 12:15:57;;;;;;;0.10;0.10;;;15.10;50.20;;;;;;4143933;28;20093;-50
2021/04/26 12:18:19;;;;;;;0.00;0.00;;;15.10;50.30;;;;;;4159506;28;20072;-46
2021/04/26 12:20:41;;;;;;;0.00;0.00;;;15.10;50.30;;;;;;4151431;28;20047;-49
2021/04/26 12:23:06;;;;;;;0.20;0.20;;;15.20;50.20;;;;;;4159859;28;20061;-46
2021/04/26 12:25:28;;;;;;;0.00;0.00;;;15.20;50.30;;;;;;4158885;28;20597;-52
2021/04/26 12:27:58;;;;;;;0.00;0.00;;;15.20;50.20;;;;;;4160224;28;20808;-45
2021/04/26 12:30:23;;;;;;;0.00;0.00;;;15.20;49.90;;;;;;4160284;28;20057;-47
2021/04/26 12:32:54;;;;;;;0.00;0.00;;;15.30;50.00;;;;;;4159975;28;20115;-47
2021/04/26 12:35:17;;;;;;;0.55;0.55;;;15.20;49.90;;;;;;4159936;28;20053;-45
2021/04/26 12:37:41;;;;;;;0.00;0.00;;;15.30;50.00;;;;;;4157409;28;20049;-46
2021/04/26 12:40:18;;;;;;;0.10;0.10;;;15.30;50.10;;;;;;4159569;28;20120;-48
2021/04/26 12:42:40;;;;;;;0.00;0.00;;;15.30;50.00;;;;;;4144252;28;20139;-47